Time;durP1;ratioP1;P1;durP2;ratioP2;P2;SDS_P1;SDS_P2;PMS_P1;PMS_P2;Temp;Humidity;BMP_temperature;BMP_pressure;BME280_temperature;BME280_humidity;BME280_pressure;Samples;Min_cycle;Max_cycle;Signal;HPM_P1;HPM_P2
2021/12/22 00:01:35;;;;;;;13.90;8.15;;;-3.00;99.90;;;;;;5120164;27;20073;-95
2021/12/22 00:04:03;;;;;;;13.25;7.65;;;-3.10;99.90;;;;;;5120020;27;20104;-95
2021/12/22 00:06:33;;;;;;;12.57;6.88;;;-3.10;99.90;;;;;;5119865;27;20044;-96
2021/12/22 00:09:00;;;;;;;14.60;8.73;;;-3.10;99.90;;;;;;5119247;27;20050;-96
2021/12/22 00:11:27;;;;;;;15.05;8.45;;;-3.10;99.90;;;;;;5119730;27;20134;-95
2021/12/22 00:13:54;;;;;;;12.93;8.05;;;-3.10;99.90;;;;;;5119912;27;20049;-95
2021/12/22 00:16:21;;;;;;;13.55;8.07;;;-3.00;99.90;;;;;;5119502;27;20039;-95
2021/12/22 00:18:47;;;;;;;14.90;7.57;;;-3.00;99.90;;;;;;5119473;27;20046;-95
2021/12/22 00:21:14;;;;;;;14.65;7.88;;;-3.00;99.90;;;;;;5119474;27;20057;-96
2021/12/22 00:23:43;;;;;;;11.00;7.85;;;-3.00;99.90;;;;;;5119368;27;20058;-95
2021/12/22 00:26:09;;;;;;;13.38;7.63;;;-3.00;99.90;;;;;;5119402;27;20043;-95
2021/12/22 00:28:36;;;;;;;16.73;8.50;;;-3.00;99.90;;;;;;5119212;27;20058;-96
2021/12/22 00:31:10;;;;;;;13.25;8.38;;;-2.90;99.90;;;;;;5119439;27;20130;-92
2021/12/22 00:33:45;;;;;;;12.73;7.60;;;-2.90;99.90;;;;;;5118876;27;20059;-95
2021/12/22 00:36:13;;;;;;;14.90;8.18;;;-2.90;99.90;;;;;;5119173;27;20051;-95
2021/12/22 00:38:40;;;;;;;12.13;7.93;;;-2.90;99.90;;;;;;5119140;27;20058;-95
2021/12/22 00:41:07;;;;;;;13.23;8.35;;;-2.90;99.90;;;;;;5119358;27;20047;-95
2021/12/22 00:43:34;;;;;;;13.80;8.00;;;-2.90;99.90;;;;;;5119210;27;20043;-95
2021/12/22 00:46:02;;;;;;;13.75;7.43;;;-2.90;99.90;;;;;;5119105;27;20043;-95
2021/12/22 00:48:29;;;;;;;13.63;8.15;;;-2.80;99.90;;;;;;5118552;27;20051;-96
2021/12/22 00:50:56;;;;;;;13.90;8.60;;;-2.80;99.90;;;;;;5119025;27;20061;-96
2021/12/22 00:53:23;;;;;;;16.98;8.48;;;-2.80;99.90;;;;;;5119065;27;20447;-94
2021/12/22 00:55:50;;;;;;;15.50;8.27;;;-2.80;99.90;;;;;;5118897;27;20451;-95
2021/12/22 00:58:17;;;;;;;15.35;7.68;;;-2.70;99.90;;;;;;5118830;27;20051;-94
2021/12/22 01:00:47;;;;;;;16.60;8.27;;;-2.70;99.90;;;;;;5118612;27;20062;-95
2021/12/22 01:03:15;;;;;;;12.15;7.38;;;-2.70;99.90;;;;;;5118779;27;20043;-96
2021/12/22 01:05:42;;;;;;;16.00;8.52;;;-2.70;99.90;;;;;;5118672;27;20133;-95
2021/12/22 01:08:09;;;;;;;16.55;8.40;;;-2.70;99.90;;;;;;5118614;27;20410;-95
2021/12/22 01:10:36;;;;;;;16.15;8.48;;;-2.70;99.90;;;;;;5118625;27;20051;-95
2021/12/22 01:13:05;;;;;;;14.93;9.00;;;-2.70;99.90;;;;;;5118331;27;20134;-95
2021/12/22 01:15:33;;;;;;;17.45;8.85;;;-2.70;99.90;;;;;;5118413;27;20119;-95
2021/12/22 01:18:05;;;;;;;15.23;8.93;;;-2.70;99.90;;;;;;5118343;27;20561;-96
2021/12/22 01:20:39;;;;;;;16.23;9.57;;;-2.70;99.90;;;;;;5118439;27;20050;-96
2021/12/22 01:23:07;;;;;;;19.55;10.38;;;-2.60;99.90;;;;;;5118462;27;20050;-95
2021/12/22 01:25:42;;;;;;;16.10;9.30;;;-2.70;99.90;;;;;;5118128;27;20497;-95
2021/12/22 01:28:11;;;;;;;19.63;9.80;;;-2.70;99.90;;;;;;5117925;27;20051;-95
2021/12/22 01:30:43;;;;;;;15.05;9.27;;;-2.60;99.90;;;;;;5118155;27;20071;-95
2021/12/22 01:33:12;;;;;;;13.63;9.30;;;-2.60;99.90;;;;;;5117897;27;20055;-95
2021/12/22 01:35:39;;;;;;;19.00;11.27;;;-2.60;99.90;;;;;;5118493;27;20053;-94
2021/12/22 01:38:07;;;;;;;17.95;10.80;;;-2.50;99.90;;;;;;5117880;27;20043;-95
2021/12/22 01:40:38;;;;;;;18.77;10.57;;;-2.50;99.90;;;;;;5118134;27;20153;-95
2021/12/22 01:43:05;;;;;;;17.63;11.32;;;-2.50;99.90;;;;;;5118027;27;20051;-96
2021/12/22 01:46:33;;;;;;;19.90;10.80;;;-2.50;99.90;;;;;;5117941;27;20044;-95
2021/12/22 01:51:38;;;;;;;19.00;10.55;;;-2.50;99.90;;;;;;5136047;27;20039;-95
2021/12/22 01:54:27;;;;;;;18.52;10.90;;;-2.50;99.90;;;;;;5118184;27;20081;-96
2021/12/22 01:56:59;;;;;;;19.42;10.88;;;-2.50;99.90;;;;;;5117847;27;20479;-95
2021/12/22 01:59:27;;;;;;;19.08;11.40;;;-2.50;99.90;;;;;;5117830;27;20525;-95
2021/12/22 02:01:54;;;;;;;27.75;12.30;;;-2.50;99.90;;;;;;5117525;27;20047;-96
2021/12/22 02:04:21;;;;;;;25.13;11.48;;;-2.50;99.90;;;;;;5117604;27;20051;-96
2021/12/22 02:06:48;;;;;;;20.55;12.52;;;-2.50;99.90;;;;;;5117638;27;20461;-95
2021/12/22 02:09:48;;;;;;;21.63;12.55;;;-2.60;99.90;;;;;;5117325;27;20053;-96
2021/12/22 02:12:15;;;;;;;25.40;14.18;;;-2.70;99.90;;;;;;5117377;27;20452;-95
2021/12/22 02:14:43;;;;;;;26.55;14.55;;;-2.70;99.90;;;;;;5117031;27;20558;-96
2021/12/22 02:17:11;;;;;;;29.95;15.13;;;-2.60;99.90;;;;;;5117262;27;20053;-96
2021/12/22 02:19:40;;;;;;;25.58;13.95;;;-2.50;99.90;;;;;;5117389;27;20067;-95
2021/12/22 02:22:13;;;;;;;23.98;14.18;;;-2.50;99.90;;;;;;5117123;27;20514;-95
2021/12/22 02:24:46;;;;;;;25.05;13.95;;;-2.50;99.90;;;;;;5117276;27;20141;-95
2021/12/22 02:27:22;;;;;;;24.48;14.10;;;-2.50;99.90;;;;;;5117263;27;20053;-96
2021/12/22 02:29:49;;;;;;;23.48;14.13;;;-2.50;99.90;;;;;;5116841;27;20111;-95
2021/12/22 02:35:15;;;;;;;24.35;14.57;;;-2.60;99.90;;;;;;5089754;27;20057;-96
2021/12/22 02:37:44;;;;;;;22.15;13.00;;;-2.60;99.90;;;;;;5117073;27;20049;-95
2021/12/22 02:40:16;;;;;;;25.15;13.15;;;-2.60;99.90;;;;;;5116918;27;20138;-96
2021/12/22 02:42:46;;;;;;;22.10;13.10;;;-2.60;99.90;;;;;;5116931;27;20054;-95
2021/12/22 02:45:18;;;;;;;23.85;12.82;;;-2.60;99.90;;;;;;5116701;28;20049;-96
2021/12/22 02:47:45;;;;;;;24.50;12.85;;;-2.70;99.90;;;;;;5116976;27;20054;-96
2021/12/22 02:50:15;;;;;;;25.02;12.63;;;-2.70;99.90;;;;;;5116367;27;20047;-96
2021/12/22 02:53:02;;;;;;;21.80;12.75;;;-2.70;99.90;;;;;;5116874;27;20590;-95
2021/12/22 02:55:41;;;;;;;24.15;12.52;;;-2.80;99.90;;;;;;5116567;27;20047;-96
2021/12/22 02:58:10;;;;;;;22.83;13.65;;;-2.80;99.90;;;;;;5116855;27;20043;-96
2021/12/22 03:01:03;;;;;;;23.73;13.60;;;-2.80;99.90;;;;;;5116013;27;20130;-96
2021/12/22 03:03:50;;;;;;;;;;;-2.80;99.90;;;;;;5120330;28;20047;-96
2021/12/22 03:06:26;;;;;;;24.40;13.18;;;-2.80;99.90;;;;;;5102102;28;20013;-94
2021/12/22 03:08:52;;;;;;;26.80;14.23;;;-2.80;99.90;;;;;;5116636;28;20046;-95
2021/12/22 03:11:19;;;;;;;24.73;13.38;;;-2.90;99.90;;;;;;5116638;28;20047;-94
2021/12/22 03:13:46;;;;;;;24.98;14.05;;;-2.90;99.90;;;;;;5116599;28;20115;-94
2021/12/22 03:16:13;;;;;;;28.05;14.75;;;-2.90;99.90;;;;;;5116264;28;20138;-95
2021/12/22 03:18:39;;;;;;;29.73;14.95;;;-3.00;99.90;;;;;;5116359;28;20130;-94
2021/12/22 03:21:20;;;;;;;24.52;13.75;;;-3.00;99.90;;;;;;5116565;28;20057;-95
2021/12/22 03:23:49;;;;;;;25.38;14.15;;;-3.00;99.90;;;;;;5116694;28;20054;-94
2021/12/22 03:26:17;;;;;;;23.88;13.90;;;-3.00;99.90;;;;;;5116127;28;20049;-95
2021/12/22 03:28:46;;;;;;;22.98;13.50;;;-3.10;99.90;;;;;;5116061;28;20055;-95
2021/12/22 03:31:14;;;;;;;24.10;13.38;;;-3.10;99.90;;;;;;5116233;28;20046;-95
2021/12/22 03:33:42;;;;;;;23.80;13.18;;;-3.10;99.90;;;;;;5116135;28;20043;-95
2021/12/22 03:36:10;;;;;;;24.17;13.40;;;-3.10;99.90;;;;;;5116250;28;20134;-95
2021/12/22 03:38:37;;;;;;;22.50;13.57;;;-3.20;99.90;;;;;;5116321;28;20043;-94
2021/12/22 03:41:06;;;;;;;24.00;12.27;;;-3.20;99.90;;;;;;5116574;28;20556;-95
2021/12/22 03:43:34;;;;;;;21.70;13.00;;;-3.30;99.90;;;;;;5116287;28;20050;-95
2021/12/22 03:46:02;;;;;;;19.77;12.20;;;-3.30;99.90;;;;;;5116293;28;20081;-95
2021/12/22 03:48:29;;;;;;;21.70;12.30;;;-3.40;99.90;;;;;;5116445;28;20051;-93
2021/12/22 03:50:56;;;;;;;23.25;13.50;;;-3.50;99.90;;;;;;5116393;28;20070;-94
2021/12/22 03:53:23;;;;;;;21.98;12.60;;;-3.60;99.90;;;;;;5116482;28;20053;-94
2021/12/22 03:55:50;;;;;;;22.80;12.55;;;-3.60;99.90;;;;;;5116138;28;20051;-95
2021/12/22 03:58:18;;;;;;;19.48;12.25;;;-3.70;99.90;;;;;;5116342;28;20043;-95
2021/12/22 04:00:45;;;;;;;22.90;13.20;;;-3.70;99.90;;;;;;5116263;28;20103;-95
2021/12/22 04:03:17;;;;;;;21.15;12.38;;;-3.80;99.90;;;;;;5116121;28;20054;-95
2021/12/22 04:05:46;;;;;;;25.30;13.02;;;-3.80;99.90;;;;;;5116649;28;20051;-95
2021/12/22 04:08:15;;;;;;;21.08;12.20;;;-3.90;99.90;;;;;;5115987;28;20057;-95
2021/12/22 04:10:48;;;;;;;18.95;11.35;;;-3.90;99.90;;;;;;5134384;27;20138;-94
2021/12/22 04:13:17;;;;;;;23.35;12.23;;;-4.00;99.90;;;;;;5138016;27;20080;-95
2021/12/22 04:15:45;;;;;;;20.73;12.18;;;-4.00;99.90;;;;;;5119768;27;20074;-95
2021/12/22 04:18:17;;;;;;;19.20;11.43;;;-4.10;99.90;;;;;;5120430;27;20054;-95
2021/12/22 04:20:57;;;;;;;18.95;10.68;;;-4.20;99.90;;;;;;5121714;27;20606;-95
2021/12/22 04:23:31;;;;;;;19.13;11.40;;;-4.20;99.90;;;;;;5120347;27;20062;-95
2021/12/22 04:25:58;;;;;;;21.15;11.88;;;-4.30;99.90;;;;;;5120627;27;20047;-95
2021/12/22 04:28:25;;;;;;;19.08;10.57;;;-4.40;99.90;;;;;;5119398;27;20051;-95
2021/12/22 04:30:52;;;;;;;17.92;11.30;;;-4.50;99.90;;;;;;5119447;27;20049;-95
2021/12/22 04:33:22;;;;;;;22.52;11.70;;;-4.50;99.90;;;;;;5136782;27;20043;-95
2021/12/22 04:35:59;;;;;;;19.05;11.90;;;-4.60;99.90;;;;;;5120619;27;20044;-95
2021/12/22 04:38:31;;;;;;;20.10;11.02;;;-4.60;99.90;;;;;;5120609;27;20047;-96
2021/12/22 04:41:12;;;;;;;21.15;11.20;;;-4.80;99.90;;;;;;5107224;27;20058;-96
2021/12/22 04:43:40;;;;;;;18.52;10.52;;;-4.80;99.90;;;;;;5120576;27;20532;-95
2021/12/22 04:46:10;;;;;;;20.08;11.95;;;-4.90;99.90;;;;;;5103170;27;20134;-96
2021/12/22 04:48:41;;;;;;;22.02;12.52;;;-5.00;99.90;;;;;;5137713;27;20059;-95
2021/12/22 04:51:25;;;;;;;24.05;12.60;;;-5.10;99.90;;;;;;5103807;27;20491;-95
2021/12/22 04:54:17;;;;;;;22.17;11.60;;;-5.10;99.90;;;;;;5106907;27;20055;-95
2021/12/22 04:56:45;;;;;;;19.70;11.80;;;-5.20;99.90;;;;;;5121475;27;20059;-96
2021/12/22 04:59:18;;;;;;;21.83;11.55;;;-5.30;99.90;;;;;;5102609;27;20068;-96
2021/12/22 05:01:47;;;;;;;22.98;11.43;;;-5.40;99.90;;;;;;5137834;27;20483;-96
2021/12/22 05:04:16;;;;;;;23.83;13.32;;;-5.50;99.90;;;;;;5120287;27;20043;-95
2021/12/22 05:06:57;;;;;;;22.83;11.82;;;-5.70;99.90;;;;;;5108889;27;20054;-95
2021/12/22 05:09:38;;;;;;;24.90;12.30;;;-5.80;99.90;;;;;;5121669;27;20079;-96
2021/12/22 05:12:05;;;;;;;26.67;13.05;;;-5.90;99.90;;;;;;5121737;27;20054;-95
2021/12/22 05:14:32;;;;;;;28.63;15.15;;;-6.00;99.90;;;;;;5121153;27;20078;-96
2021/12/22 05:17:02;;;;;;;26.00;14.35;;;-6.00;99.90;;;;;;5121573;27;20111;-96
2021/12/22 05:19:29;;;;;;;25.25;12.90;;;-6.00;99.90;;;;;;5122088;27;20452;-96
2021/12/22 05:21:56;;;;;;;19.88;11.68;;;-6.00;99.90;;;;;;5121983;27;20477;-96
2021/12/22 05:24:23;;;;;;;22.80;12.88;;;-6.00;99.90;;;;;;5121382;27;20047;-96
2021/12/22 05:26:50;;;;;;;28.63;14.40;;;-5.90;99.90;;;;;;5121791;27;20070;-96
2021/12/22 05:29:17;;;;;;;26.63;13.20;;;-5.90;99.90;;;;;;5122410;27;20040;-96
2021/12/22 05:31:44;;;;;;;24.52;13.73;;;-5.80;99.90;;;;;;5123814;27;20071;-96
2021/12/22 05:34:11;;;;;;;26.70;13.45;;;-5.80;99.90;;;;;;5123200;27;20212;-93
2021/12/22 05:36:41;;;;;;;26.33;12.32;;;-5.90;99.90;;;;;;5125211;27;20058;-95
2021/12/22 05:39:08;;;;;;;25.27;12.77;;;-5.90;99.90;;;;;;5108768;27;20082;-96
2021/12/22 05:41:35;;;;;;;25.33;12.63;;;-5.90;99.90;;;;;;5126308;27;20096;-96
2021/12/22 05:44:02;;;;;;;22.98;13.13;;;-5.90;99.90;;;;;;5126811;27;20077;-91
2021/12/22 05:46:46;;;;;;;27.15;13.73;;;-6.00;99.90;;;;;;5130329;27;20082;-96
2021/12/22 05:49:14;;;;;;;24.98;11.75;;;-6.00;99.90;;;;;;5128952;27;20074;-96
2021/12/22 05:51:45;;;;;;;27.50;12.88;;;-6.10;99.90;;;;;;5130412;27;20047;-96
2021/12/22 05:54:13;;;;;;;25.45;12.88;;;-6.20;99.90;;;;;;5131341;27;20074;-96
2021/12/22 05:56:41;;;;;;;24.00;12.43;;;-6.30;99.90;;;;;;5131907;27;20072;-96
2021/12/22 05:59:26;;;;;;;25.60;13.20;;;-6.30;99.90;;;;;;6085026;22;20073;-96
2021/12/22 06:02:32;;;;;;;32.38;14.18;;;-6.30;99.90;;;;;;5091729;28;20061;-96
2021/12/22 06:05:02;;;;;;;26.85;12.88;;;-6.40;99.90;;;;;;5088398;28;20052;-95
2021/12/22 06:07:37;;;;;;;26.70;11.98;;;-6.30;99.90;;;;;;5058502;28;20080;-96
2021/12/22 06:10:08;;;;;;;24.98;11.93;;;-6.30;99.90;;;;;;5063767;28;20074;-96
2021/12/22 06:12:38;;;;;;;27.08;12.90;;;-6.30;99.90;;;;;;5091474;28;20155;-96
2021/12/22 06:15:06;;;;;;;26.38;12.45;;;-6.30;99.90;;;;;;5091003;28;20059;-96
2021/12/22 06:17:33;;;;;;;24.80;12.48;;;-6.30;99.90;;;;;;5092033;28;20075;-96
2021/12/22 06:22:39;;;;;;;21.58;11.23;;;-6.30;99.90;;;;;;5052319;28;20052;-77
2021/12/22 06:25:06;;;;;;;22.90;10.63;;;-6.40;99.90;;;;;;5054459;28;20084;-77
2021/12/22 06:27:33;;;;;;;27.67;12.50;;;-6.40;99.90;;;;;;5054505;28;20144;-77
2021/12/22 06:30:00;;;;;;;26.77;12.38;;;-6.40;99.90;;;;;;5054213;28;20128;-76
2021/12/22 06:32:26;;;;;;;23.90;11.90;;;-6.40;99.90;;;;;;5054309;28;20140;-78
2021/12/22 06:34:53;;;;;;;23.38;11.57;;;-6.40;99.90;;;;;;5053892;28;20136;-77
2021/12/22 06:37:19;;;;;;;27.70;11.27;;;-6.40;99.90;;;;;;5054729;28;20493;-78
2021/12/22 06:39:46;;;;;;;23.65;11.88;;;-6.50;99.90;;;;;;5036498;28;20576;-77
2021/12/22 06:42:13;;;;;;;21.80;11.93;;;-6.50;99.90;;;;;;5053857;28;20494;-77
2021/12/22 06:44:40;;;;;;;23.48;13.00;;;-6.50;99.90;;;;;;5053733;28;20070;-78
2021/12/22 06:47:07;;;;;;;25.15;12.63;;;-6.50;99.90;;;;;;5035670;28;20513;-77
2021/12/22 06:49:34;;;;;;;30.20;13.30;;;-6.60;99.90;;;;;;5053333;28;20132;-77
2021/12/22 06:52:00;;;;;;;23.35;11.90;;;-6.60;99.90;;;;;;5035798;28;20063;-77
2021/12/22 06:54:27;;;;;;;26.67;12.45;;;-6.70;99.90;;;;;;5035792;28;20144;-77
2021/12/22 06:56:54;;;;;;;26.83;11.23;;;-6.80;99.90;;;;;;5035424;28;20469;-77
2021/12/22 06:59:21;;;;;;;31.45;12.18;;;-6.80;99.90;;;;;;5036313;28;20072;-77
2021/12/22 07:01:49;;;;;;;22.42;11.05;;;-6.70;99.90;;;;;;5053789;28;20553;-77
2021/12/22 07:04:17;;;;;;;21.42;10.93;;;-6.80;99.90;;;;;;5035552;28;20493;-77
2021/12/22 07:06:44;;;;;;;21.23;10.40;;;-6.80;99.90;;;;;;5036814;28;20053;-77
2021/12/22 07:09:11;;;;;;;27.67;11.00;;;-6.70;99.90;;;;;;5054514;28;20041;-77
2021/12/22 07:11:38;;;;;;;30.17;11.63;;;-6.80;99.90;;;;;;5053889;28;20219;-77
2021/12/22 07:14:08;;;;;;;27.33;10.48;;;-6.90;99.90;;;;;;5035380;28;20109;-76
2021/12/22 07:16:37;;;;;;;27.23;12.35;;;-6.80;99.90;;;;;;5054751;28;20127;-78
2021/12/22 07:19:04;;;;;;;21.83;11.02;;;-6.90;99.90;;;;;;5053488;28;20053;-78
2021/12/22 07:21:31;;;;;;;19.35;10.57;;;-6.90;99.90;;;;;;5035585;28;20092;-77
2021/12/22 07:23:57;;;;;;;21.27;11.32;;;-6.90;99.90;;;;;;5035796;28;20484;-78
2021/12/22 07:26:24;;;;;;;25.48;11.90;;;-6.80;99.90;;;;;;5053603;28;20496;-77
2021/12/22 07:28:51;;;;;;;25.10;10.23;;;-6.80;99.90;;;;;;5036491;28;20080;-79
2021/12/22 07:31:18;;;;;;;25.77;12.63;;;-6.80;99.90;;;;;;5037779;28;20413;-77
2021/12/22 07:34:01;;;;;;;71.28;26.90;;;-6.80;99.90;;;;;;5052765;28;20394;-77
2021/12/22 07:36:28;;;;;;;42.33;18.38;;;-6.90;99.90;;;;;;5055800;28;20198;-77
2021/12/22 07:38:59;;;;;;;21.55;11.80;;;-6.90;99.90;;;;;;5053065;28;20073;-77
2021/12/22 07:41:27;;;;;;;29.40;11.82;;;-6.80;99.90;;;;;;5053302;28;20053;-77
2021/12/22 07:43:54;;;;;;;22.45;12.20;;;-6.80;99.90;;;;;;5052567;28;20063;-77
2021/12/22 07:46:21;;;;;;;18.42;10.52;;;-6.80;99.90;;;;;;5054424;28;20136;-77
2021/12/22 07:48:49;;;;;;;22.50;11.50;;;-6.80;99.90;;;;;;5038815;28;20429;-77
2021/12/22 07:51:16;;;;;;;19.48;11.25;;;-6.80;99.90;;;;;;5039755;28;20132;-77
2021/12/22 07:53:42;;;;;;;31.13;13.00;;;-6.80;99.90;;;;;;5039205;28;20149;-78
2021/12/22 07:56:09;;;;;;;24.77;12.07;;;-6.70;99.90;;;;;;5057062;28;20477;-79
2021/12/22 07:58:36;;;;;;;26.02;11.60;;;-6.70;99.90;;;;;;5041756;28;20128;-79
2021/12/22 08:01:03;;;;;;;20.08;10.82;;;-6.70;99.90;;;;;;5041650;28;20073;-78
2021/12/22 08:03:30;;;;;;;22.65;10.65;;;-6.60;99.90;;;;;;5057161;28;20059;-77
2021/12/22 08:06:13;;;;;;;24.98;12.05;;;-6.70;99.90;;;;;;5043671;28;20049;-79
2021/12/22 08:08:40;;;;;;;26.83;13.02;;;-6.70;99.90;;;;;;5056457;28;20083;-77
2021/12/22 08:11:07;;;;;;;22.10;11.27;;;-6.60;99.90;;;;;;5038477;28;20127;-77
2021/12/22 08:13:34;;;;;;;25.95;12.52;;;-6.60;99.90;;;;;;5038539;28;20131;-77
2021/12/22 08:16:02;;;;;;;26.95;12.40;;;-6.60;99.90;;;;;;5056468;28;20072;-77
2021/12/22 08:18:29;;;;;;;24.27;12.57;;;-6.70;99.90;;;;;;5055903;28;20045;-76
2021/12/22 08:20:55;;;;;;;20.55;11.40;;;-6.70;99.90;;;;;;5056591;28;20085;-77
2021/12/22 08:23:22;;;;;;;26.95;13.32;;;-6.60;99.90;;;;;;5056627;28;20131;-77
2021/12/22 08:25:49;;;;;;;25.92;11.95;;;-6.60;99.90;;;;;;5056358;28;20061;-77
2021/12/22 08:28:16;;;;;;;22.92;12.80;;;-6.50;99.90;;;;;;5056570;28;20084;-77
2021/12/22 08:30:43;;;;;;;22.25;11.63;;;-6.50;99.90;;;;;;5055994;28;20593;-77
2021/12/22 08:33:20;;;;;;;20.60;11.55;;;-6.40;99.90;;;;;;5056062;28;20060;-76
2021/12/22 08:38:57;;;;;;;31.77;15.23;;;-6.50;99.90;;;;;;5055810;28;20045;-77
2021/12/22 08:41:28;;;;;;;34.50;16.20;;;-6.40;99.90;;;;;;5056053;28;20147;-77
2021/12/22 08:43:57;;;;;;;22.02;11.48;;;-6.30;99.90;;;;;;5038913;28;20052;-77
2021/12/22 08:46:25;;;;;;;20.50;11.40;;;-6.30;99.90;;;;;;5056360;28;20421;-77
2021/12/22 08:48:52;;;;;;;19.50;11.73;;;-6.30;99.90;;;;;;5057280;28;20099;-77
2021/12/22 08:51:18;;;;;;;22.38;11.00;;;-6.30;99.90;;;;;;5038386;28;20045;-77
2021/12/22 08:53:45;;;;;;;25.55;11.15;;;-6.20;99.90;;;;;;5038454;28;20045;-77
2021/12/22 08:56:12;;;;;;;20.17;10.85;;;-6.30;99.90;;;;;;5037984;28;20088;-77
2021/12/22 08:58:39;;;;;;;30.13;11.40;;;-6.20;99.90;;;;;;5054577;28;20120;-77
2021/12/22 09:01:06;;;;;;;23.55;11.15;;;-6.20;99.90;;;;;;5055514;28;20553;-77
2021/12/22 09:03:34;;;;;;;24.98;11.38;;;-6.20;99.90;;;;;;5055229;28;20053;-77
2021/12/22 09:06:01;;;;;;;26.95;10.57;;;-6.20;99.90;;;;;;5037515;28;20520;-77
2021/12/22 09:08:28;;;;;;;22.75;10.05;;;-6.10;99.90;;;;;;5055331;28;20501;-76
2021/12/22 09:10:55;;;;;;;16.67;9.23;;;-6.10;99.90;;;;;;5055434;28;20128;-77
2021/12/22 09:13:22;;;;;;;18.67;10.48;;;-6.10;99.90;;;;;;5037636;28;20132;-77
2021/12/22 09:15:49;;;;;;;22.23;11.27;;;-6.10;99.90;;;;;;5055139;28;20135;-77
2021/12/22 09:18:17;;;;;;;20.35;11.48;;;-6.10;99.90;;;;;;5037585;28;20501;-77
2021/12/22 09:20:44;;;;;;;25.23;12.00;;;-6.10;99.90;;;;;;5037647;28;20151;-76
2021/12/22 09:23:10;;;;;;;22.65;12.55;;;-6.20;99.90;;;;;;5037663;28;20572;-77
2021/12/22 09:25:37;;;;;;;25.10;12.00;;;-6.20;99.90;;;;;;5037413;28;20568;-77
2021/12/22 09:28:06;;;;;;;30.80;12.65;;;-6.20;99.90;;;;;;5055892;28;20517;-77
2021/12/22 09:30:36;;;;;;;29.48;12.30;;;-6.10;99.90;;;;;;5037100;28;20567;-77
2021/12/22 09:33:05;;;;;;;41.53;13.88;;;-6.20;99.90;;;;;;5037669;28;20084;-77
2021/12/22 09:35:32;;;;;;;52.03;19.00;;;-6.20;99.90;;;;;;5055897;28;20127;-79
2021/12/22 09:37:59;;;;;;;86.53;31.42;;;-6.10;99.90;;;;;;5038370;28;20493;-77
2021/12/22 09:40:25;;;;;;;96.78;33.40;;;-6.00;99.90;;;;;;5037522;28;20119;-77
2021/12/22 09:42:52;;;;;;;48.08;19.58;;;-6.00;99.90;;;;;;5055412;28;20141;-77
2021/12/22 09:45:23;;;;;;;54.00;19.75;;;-6.00;99.90;;;;;;5037029;28;20136;-77
2021/12/22 09:50:50;;;;;;;41.08;15.18;;;-5.90;99.90;;;;;;5054496;28;20386;-77
2021/12/22 09:53:22;;;;;;;32.97;12.85;;;-5.80;99.90;;;;;;5054872;28;20136;-77
2021/12/22 09:55:50;;;;;;;35.55;12.65;;;-5.80;99.90;;;;;;5036611;28;20045;-77
2021/12/22 09:58:17;;;;;;;32.88;12.35;;;-5.80;99.90;;;;;;5036644;28;20076;-76
2021/12/22 10:00:46;;;;;;;25.88;13.18;;;-5.80;99.90;;;;;;5054714;28;20328;-77
2021/12/22 10:03:13;;;;;;;40.80;11.18;;;-5.70;99.90;;;;;;5036560;28;20048;-77
2021/12/22 10:05:42;;;;;;;30.80;11.75;;;-5.60;99.90;;;;;;5054283;28;20494;-77
2021/12/22 10:08:28;;;;;;;33.25;13.23;;;-5.70;99.90;;;;;;5054256;28;20059;-77
2021/12/22 10:11:09;;;;;;;38.53;11.65;;;-5.60;99.90;;;;;;5036655;28;20119;-77
2021/12/22 10:13:43;;;;;;;38.17;12.60;;;-5.60;99.90;;;;;;5037099;28;20052;-77
2021/12/22 10:16:15;;;;;;;38.33;11.65;;;-5.50;99.90;;;;;;5036591;28;20048;-76
2021/12/22 10:18:42;;;;;;;32.35;12.30;;;-5.40;99.90;;;;;;5036940;28;20081;-76
2021/12/22 10:21:18;;;;;;;30.92;11.65;;;-5.40;99.90;;;;;;5053979;28;20270;-78
2021/12/22 10:23:51;;;;;;;31.35;13.02;;;-5.30;99.90;;;;;;5036532;28;20131;-77
2021/12/22 10:26:23;;;;;;;42.28;12.25;;;-5.30;99.90;;;;;;5036212;28;20140;-77
2021/12/22 10:29:00;;;;;;;26.55;10.65;;;-5.20;99.90;;;;;;5036288;28;20087;-77
2021/12/22 10:31:32;;;;;;;26.77;13.20;;;-5.20;99.90;;;;;;5035859;28;20080;-77
2021/12/22 10:34:03;;;;;;;43.55;12.57;;;-5.10;99.90;;;;;;5036068;28;20053;-77
2021/12/22 10:36:43;;;;;;;29.63;10.55;;;-5.00;99.90;;;;;;5053811;28;20041;-76
2021/12/22 10:39:18;;;;;;;38.42;11.13;;;-5.00;99.90;;;;;;5036906;28;20071;-78
2021/12/22 10:41:46;;;;;;;31.38;10.45;;;-4.90;99.90;;;;;;5053622;28;20148;-77
2021/12/22 10:44:17;;;;;;;36.38;13.02;;;-4.80;99.90;;;;;;5053688;28;20049;-77
2021/12/22 10:46:43;;;;;;;33.47;11.90;;;-4.80;99.90;;;;;;5036399;28;20132;-77
2021/12/22 10:49:20;;;;;;;30.33;11.35;;;-4.90;99.90;;;;;;5053647;28;20049;-77
2021/12/22 10:52:00;;;;;;;36.50;11.52;;;-4.70;99.90;;;;;;5036016;28;20128;-76
2021/12/22 10:54:36;;;;;;;28.90;10.50;;;-4.60;99.90;;;;;;5035974;28;20132;-78
2021/12/22 10:57:09;;;;;;;22.45;11.55;;;-4.60;99.90;;;;;;5035960;28;20044;-76
2021/12/22 10:59:49;;;;;;;25.33;11.85;;;-4.40;99.90;;;;;;5036152;28;20073;-77
2021/12/22 11:02:23;;;;;;;21.35;11.27;;;-4.40;99.90;;;;;;5035797;28;20489;-77
2021/12/22 11:04:50;;;;;;;33.80;12.52;;;-4.40;99.90;;;;;;5053236;28;20055;-77
2021/12/22 11:07:25;;;;;;;29.23;10.18;;;-4.30;99.90;;;;;;5053484;28;20131;-77
2021/12/22 11:09:52;;;;;;;24.42;10.70;;;-4.20;99.90;;;;;;5053340;28;20049;-77
2021/12/22 11:12:34;;;;;;;31.13;11.15;;;-4.10;99.90;;;;;;5053621;28;20077;-77
2021/12/22 11:15:01;;;;;;;25.73;9.75;;;-4.00;99.90;;;;;;5036223;28;20080;-78
2021/12/22 11:17:28;;;;;;;48.40;12.82;;;-3.90;99.90;;;;;;5036367;28;20145;-77
2021/12/22 11:20:04;;;;;;;49.05;12.48;;;-3.80;99.90;;;;;;5060367;28;20068;-77
2021/12/22 11:22:57;;;;;;;61.22;13.90;;;-3.70;99.90;;;;;;5045754;28;20088;-77
2021/12/22 11:25:25;;;;;;;58.03;15.00;;;-3.50;99.90;;;;;;5046431;28;20095;-78
2021/12/22 11:27:53;;;;;;;46.60;12.60;;;-3.40;99.90;;;;;;5059199;28;20109;-77
2021/12/22 11:30:22;;;;;;;27.38;9.27;;;-3.30;99.90;;;;;;5058462;28;20076;-78
2021/12/22 11:32:49;;;;;;;46.33;14.75;;;-3.20;99.90;;;;;;5040696;28;20048;-78
2021/12/22 11:35:17;;;;;;;30.92;10.68;;;-3.10;99.90;;;;;;5042887;28;20568;-78
2021/12/22 11:37:44;;;;;;;63.03;11.55;;;-3.00;99.90;;;;;;5040828;28;20470;-78
2021/12/22 11:40:16;;;;;;;42.58;11.98;;;-2.90;99.90;;;;;;5058088;28;20056;-78
2021/12/22 11:42:43;;;;;;;29.92;11.80;;;-2.30;99.90;;;;;;5057926;28;20532;-78
2021/12/22 11:45:22;;;;;;;30.33;10.85;;;-1.40;99.90;;;;;;5061777;28;20053;-78
2021/12/22 11:47:51;;;;;;;26.98;10.60;;;-1.30;99.90;;;;;;5039969;28;20045;-78
2021/12/22 11:50:28;;;;;;;38.50;9.68;;;-1.20;99.90;;;;;;5061127;28;20501;-78
2021/12/22 11:52:59;;;;;;;28.88;9.05;;;-1.30;99.90;;;;;;5039755;28;20584;-79
2021/12/22 11:55:42;;;;;;;28.02;8.60;;;-1.70;99.90;;;;;;5059468;28;20079;-78
2021/12/22 11:58:14;;;;;;;34.38;10.18;;;-1.60;99.90;;;;;;5056967;28;20468;-79
2021/12/22 12:01:08;;;;;;;33.50;8.93;;;-1.60;99.90;;;;;;5057320;28;20114;-79
2021/12/22 12:03:43;;;;;;;32.13;9.65;;;-1.60;99.90;;;;;;5039200;28;20059;-79
2021/12/22 12:06:17;;;;;;;28.70;9.23;;;-1.60;99.90;;;;;;5056662;28;20140;-79
2021/12/22 12:08:51;;;;;;;43.42;9.77;;;-1.60;99.90;;;;;;5057727;28;20454;-79
2021/12/22 12:11:50;;;;;;;20.33;7.05;;;-1.60;99.90;;;;;;5039886;28;20076;-79
2021/12/22 12:14:53;;;;;;;38.28;7.10;;;-1.60;99.90;;;;;;5049012;28;20134;-79
2021/12/22 12:23:29;;;;;;;17.65;5.88;;;-1.70;99.90;;;;;;5056743;28;20132;-79
2021/12/22 12:26:04;;;;;;;15.15;5.38;;;-1.60;99.90;;;;;;5038680;28;20469;-79
2021/12/22 12:28:45;;;;;;;13.43;5.80;;;-1.60;99.90;;;;;;5038678;28;20497;-79
2021/12/22 12:31:12;;;;;;;9.57;5.25;;;-1.50;99.90;;;;;;5055818;28;20477;-78
2021/12/22 12:33:44;;;;;;;11.63;5.72;;;-1.50;99.90;;;;;;5039142;28;20079;-79
2021/12/22 12:36:13;;;;;;;14.20;6.07;;;-1.60;99.90;;;;;;5040583;28;20127;-80
2021/12/22 12:38:40;;;;;;;17.17;7.22;;;-1.50;99.90;;;;;;5039535;28;20128;-80
2021/12/22 12:41:31;;;;;;;7.07;4.40;;;-1.40;99.90;;;;;;5039491;28;20140;-79
2021/12/22 12:44:09;;;;;;;8.82;4.78;;;-1.40;99.90;;;;;;5058056;28;20510;-80
2021/12/22 12:46:48;;;;;;;11.45;4.78;;;-1.30;99.90;;;;;;5060420;28;20501;-80
2021/12/22 12:49:15;;;;;;;10.93;5.03;;;-1.30;99.90;;;;;;5040896;28;20048;-80
2021/12/22 12:51:41;;;;;;;9.10;4.65;;;-1.10;99.90;;;;;;5057965;28;20509;-80
2021/12/22 12:54:17;;;;;;;12.35;4.10;;;-1.00;99.90;;;;;;5040290;28;20555;-80
2021/12/22 12:56:51;;;;;;;8.80;5.35;;;-1.00;99.90;;;;;;5058283;28;20051;-80
2021/12/22 12:59:26;;;;;;;6.53;3.90;;;-0.90;99.90;;;;;;5058418;28;20347;-80
2021/12/22 13:01:57;;;;;;;5.55;4.07;;;-0.80;99.90;;;;;;5040228;28;20595;-80
2021/12/22 13:04:34;;;;;;;8.18;4.43;;;-0.60;99.90;;;;;;5039985;28;20053;-80
2021/12/22 13:07:00;;;;;;;6.10;4.57;;;-0.80;99.90;;;;;;5057905;28;20144;-80
2021/12/22 13:09:39;;;;;;;9.52;4.63;;;-0.70;99.90;;;;;;5039635;28;20052;-81